createdAt,value
2023-04-23T00:00:40.520Z,5.7
2023-04-23T00:04:41.739Z,6.55
2023-04-23T00:08:45.620Z,6.25
2023-04-23T00:12:40.422Z,6.97
2023-04-23T00:16:41.173Z,6.15
2023-04-23T00:20:41.154Z,6.3
2023-04-23T00:24:40.717Z,6.1
2023-04-23T00:28:41.165Z,6.2
2023-04-23T00:32:40.603Z,6.18
2023-04-23T00:36:40.489Z,6.65
2023-04-23T00:40:41.171Z,6.15
2023-04-23T00:44:40.697Z,5.95
2023-04-23T00:48:40.214Z,5.4
2023-04-23T00:52:40.540Z,6.12
2023-04-23T00:56:39.503Z,6.2
2023-04-23T01:00:40.697Z,5.97
2023-04-23T01:04:41.113Z,6.03
2023-04-23T01:08:41.138Z,5.93
2023-04-23T01:12:40.528Z,5.15
2023-04-23T01:16:40.407Z,5.9
2023-04-23T01:20:40.806Z,5.6
2023-04-23T01:24:40.507Z,5.9
2023-04-23T01:28:40.419Z,5.57
2023-04-23T01:32:40.610Z,5.3
2023-04-23T01:36:40.480Z,4.62
2023-04-23T01:40:40.471Z,5.15
2023-04-23T01:44:41.072Z,6.3
2023-04-23T01:48:40.551Z,4.97
2023-04-23T01:52:40.692Z,4.57
2023-04-23T01:56:40.213Z,4.8
2023-04-23T02:00:40.427Z,5.05
2023-04-23T02:04:41.061Z,4.62
2023-04-23T02:08:40.621Z,4.7
2023-04-23T02:12:40.601Z,4.78
2023-04-23T02:16:40.617Z,4.85
2023-04-23T02:20:40.493Z,4.35
2023-04-23T02:24:40.765Z,4.47
2023-04-23T02:28:40.413Z,4.1
2023-04-23T02:32:40.681Z,4.5
2023-04-23T02:36:39.657Z,4.93
2023-04-23T02:40:40.502Z,4
2023-04-23T02:44:40.569Z,4.57
2023-04-23T02:48:40.689Z,4.97
2023-04-23T02:52:40.448Z,4.68
2023-04-23T02:56:40.538Z,4.55
2023-04-23T03:00:40.575Z,4.8
2023-04-23T03:04:40.803Z,5
2023-04-23T03:08:40.928Z,4.55
2023-04-23T03:12:40.429Z,4.18
2023-04-23T03:16:40.712Z,4.82
2023-04-23T03:20:40.404Z,5.07
2023-04-23T03:24:40.777Z,4.6
2023-04-23T03:28:40.507Z,4.8
2023-04-23T03:32:40.418Z,4.7
2023-04-23T03:36:40.423Z,5.47
2023-04-23T03:40:40.551Z,5.1
2023-04-23T03:44:40.599Z,4.6
2023-04-23T03:48:40.791Z,4.97
2023-04-23T03:52:39.711Z,5.05
2023-04-23T03:56:40.499Z,5.18
2023-04-23T04:00:40.471Z,5.57
2023-04-23T04:04:40.772Z,5.07
2023-04-23T04:08:40.816Z,4.62
2023-04-23T04:12:40.462Z,4.68
2023-04-23T04:16:41.171Z,5.22
2023-04-23T04:20:40.486Z,4.62
2023-04-23T04:24:40.658Z,4.82
2023-04-23T04:28:40.630Z,4.55
2023-04-23T04:32:40.575Z,4.7
2023-04-23T04:36:40.586Z,4.7
2023-04-23T04:40:40.637Z,4.93
2023-04-23T04:44:40.703Z,4.15
2023-04-23T04:48:40.581Z,4.53
2023-04-23T04:52:40.632Z,4.37
2023-04-23T04:56:41.499Z,4.53
2023-04-23T05:00:40.262Z,4.87
2023-04-23T05:04:40.624Z,3.78
2023-04-23T05:08:40.875Z,4.3
2023-04-23T05:12:40.609Z,4.3
2023-04-23T05:16:40.884Z,3.83
2023-04-23T05:20:40.784Z,4.37
2023-04-23T05:24:40.707Z,4.78
2023-04-23T05:28:40.551Z,4.7
2023-04-23T05:32:40.732Z,3.8
2023-04-23T05:36:40.590Z,4.68
2023-04-23T05:40:40.426Z,5.1
2023-04-23T05:44:41.522Z,3.83
2023-04-23T05:48:40.317Z,5.12
2023-04-23T05:52:40.464Z,4.05
2023-04-23T05:56:40.283Z,4.3
2023-04-23T06:00:40.843Z,4.8
2023-04-23T06:04:40.734Z,3.95
2023-04-23T06:08:40.849Z,4.8
2023-04-23T06:12:40.379Z,4.3
2023-04-23T06:16:39.899Z,3.67
2023-04-23T06:20:40.542Z,4.2
2023-04-23T06:24:41.025Z,5.03
2023-04-23T06:28:40.480Z,4.25
2023-04-23T06:32:40.737Z,4.68
2023-04-23T06:36:40.335Z,4.15
2023-04-23T06:40:40.931Z,3.8
2023-04-23T06:44:40.964Z,4.45
2023-04-23T06:48:40.714Z,3.8
2023-04-23T06:52:40.390Z,4
2023-04-23T06:56:40.405Z,4.2
2023-04-23T07:00:40.558Z,3.7
2023-04-23T07:04:40.816Z,4.72
2023-04-23T07:08:40.393Z,3.55
2023-04-23T07:12:40.408Z,4.5
2023-04-23T07:16:40.525Z,4.87
2023-04-23T07:20:40.617Z,4.22
2023-04-23T07:24:40.566Z,4.1
2023-04-23T07:28:40.415Z,4.1
2023-04-23T07:36:40.398Z,4.28
2023-04-23T07:40:41.406Z,3.65
2023-04-23T07:44:40.710Z,3.87
2023-04-23T07:48:41.087Z,3.87
2023-04-23T07:52:40.560Z,4.03
2023-04-23T07:56:43.085Z,3.83
2023-04-23T08:00:40.911Z,3.6
2023-04-23T08:04:41.395Z,3.67
2023-04-23T08:08:40.501Z,3.42
2023-04-23T08:12:40.612Z,3.35
2023-04-23T08:16:40.810Z,3.55
2023-04-23T08:20:40.569Z,3.25
2023-04-23T08:24:40.550Z,3.3
2023-04-23T08:28:40.524Z,3.4
2023-04-23T08:32:40.705Z,3.3
2023-04-23T08:36:40.632Z,3.45
2023-04-23T08:40:40.635Z,3.75
2023-04-23T08:44:40.359Z,3.37
2023-04-23T08:48:40.603Z,2.92
2023-04-23T08:52:40.662Z,3.4
2023-04-23T08:56:39.674Z,3.67
2023-04-23T09:00:40.724Z,2.8
2023-04-23T09:04:40.740Z,3
2023-04-23T09:08:39.525Z,2.9
2023-04-23T09:12:40.539Z,3.1
2023-04-23T09:16:40.539Z,2.03
2023-04-23T09:20:40.926Z,2.15
2023-04-23T09:24:40.779Z,1.9
2023-04-23T09:28:40.671Z,1.85
2023-04-23T09:32:40.499Z,1.8
2023-04-23T09:36:40.432Z,1.9
2023-04-23T09:40:40.616Z,1.75
2023-04-23T09:44:40.780Z,1.37
2023-04-23T09:48:40.636Z,1.87
2023-04-23T09:52:40.415Z,1.9
2023-04-23T09:56:40.434Z,2.12
2023-04-23T10:00:40.809Z,1.92
2023-04-23T10:04:40.520Z,1.7
2023-04-23T10:08:40.907Z,2.17
2023-04-23T10:12:53.697Z,1.5
2023-04-23T10:16:48.729Z,1.98
2023-04-23T10:20:40.850Z,2.1
2023-04-23T10:24:40.567Z,2.3
2023-04-23T10:28:40.568Z,2.37
2023-04-23T10:32:40.682Z,2.08
2023-04-23T10:36:40.407Z,2.35
2023-04-23T10:40:40.824Z,1.92
2023-04-23T10:48:40.019Z,2.8
2023-04-23T10:52:41.154Z,2.3
2023-04-23T10:56:40.585Z,2.37
2023-04-23T11:00:40.507Z,2.1
2023-04-23T11:04:40.749Z,1.7
2023-04-23T11:08:40.533Z,1.62
2023-04-23T11:12:40.472Z,1.5
2023-04-23T11:16:40.750Z,1.55
2023-04-23T11:20:40.522Z,2.03
2023-04-23T11:24:41.212Z,2.4
2023-04-23T11:28:40.320Z,2.6
2023-04-23T11:32:40.956Z,3.33
2023-04-23T11:36:40.507Z,2
2023-04-23T11:40:40.680Z,1.75
2023-04-23T11:44:40.727Z,1.58
2023-04-23T11:48:40.414Z,1.58
2023-04-23T11:52:40.819Z,1.77
2023-04-23T11:56:40.431Z,1.75
2023-04-23T12:00:40.728Z,1
2023-04-23T12:04:41.501Z,0.9
2023-04-23T12:08:40.274Z,1
2023-04-23T12:12:40.545Z,0.7
2023-04-23T12:16:40.590Z,1.7
2023-04-23T12:20:40.583Z,0.85
2023-04-23T12:24:40.505Z,0.73
2023-04-23T12:28:40.395Z,0.7
2023-04-23T12:32:40.981Z,0.5
2023-04-23T12:36:40.380Z,0.37
2023-04-23T12:40:40.116Z,0.5
2023-04-23T12:44:40.389Z,0.82
2023-04-23T12:48:40.152Z,0.4
2023-04-23T12:52:41.194Z,0.3
2023-04-23T12:56:40.532Z,0.4
2023-04-23T13:00:39.415Z,0.4
2023-04-23T13:04:40.523Z,0.3
2023-04-23T13:08:40.674Z,0.4
2023-04-23T13:12:40.491Z,0.25
2023-04-23T13:16:40.479Z,0.3
2023-04-23T13:20:40.574Z,0.4
2023-04-23T13:24:40.463Z,0.3
2023-04-23T13:28:40.554Z,0.2
2023-04-23T13:32:40.552Z,0.43
2023-04-23T13:36:40.722Z,0.4
2023-04-23T13:40:41.228Z,0.95
2023-04-23T13:44:40.790Z,0.4
2023-04-23T13:48:40.456Z,0.5
2023-04-23T13:52:40.456Z,0.4
2023-04-23T13:56:40.446Z,0.45
2023-04-23T14:00:40.769Z,0.65
2023-04-23T14:04:40.637Z,0.6
2023-04-23T14:08:40.436Z,0.5
2023-04-23T14:12:40.669Z,0.5
2023-04-23T14:16:41.203Z,0.47
2023-04-23T14:20:40.588Z,0.6
2023-04-23T14:24:40.890Z,0.7
2023-04-23T14:28:40.460Z,1.25
2023-04-23T14:32:41.064Z,0.9
2023-04-23T14:36:40.670Z,0.82
2023-04-23T14:40:39.648Z,0.8
2023-04-23T14:44:40.474Z,0.9
2023-04-23T14:48:40.741Z,0.75
2023-04-23T14:52:40.412Z,0.7
2023-04-23T14:56:40.571Z,0.88
2023-04-23T15:00:41.081Z,0.9
2023-04-23T15:04:40.864Z,0.6
2023-04-23T15:08:40.425Z,0.6
2023-04-23T15:12:40.489Z,0.4
2023-04-23T15:16:48.712Z,0.6
2023-04-23T15:20:40.427Z,0.8
2023-04-23T15:24:40.423Z,0.5
2023-04-23T15:28:40.383Z,0.68
2023-04-23T15:32:40.445Z,0.65
2023-04-23T15:36:40.931Z,0.43
2023-04-23T15:40:40.901Z,0.82
2023-04-23T15:44:40.374Z,0.68
2023-04-23T15:48:40.427Z,0.7
2023-04-23T15:52:40.530Z,0.5
2023-04-23T15:56:40.430Z,0.7
2023-04-23T16:00:40.589Z,0.6
2023-04-23T16:04:41.251Z,0.57
2023-04-23T16:08:40.293Z,0.6
2023-04-23T16:12:40.447Z,0.5
2023-04-23T16:16:40.245Z,0.8
2023-04-23T16:20:40.603Z,0.6
2023-04-23T16:24:40.408Z,0.65
2023-04-23T16:28:40.399Z,0.8
2023-04-23T16:32:40.449Z,0.7
2023-04-23T16:36:40.418Z,20.02
2023-04-23T16:40:40.200Z,1.87
2023-04-23T16:44:41.245Z,0.8
2023-04-23T16:48:40.528Z,0.5
2023-04-23T16:52:40.353Z,0.7
2023-04-23T16:56:40.430Z,0.8
2023-04-23T17:00:40.268Z,0.57
2023-04-23T17:04:41.054Z,0.4
2023-04-23T17:08:40.523Z,0.73
2023-04-23T17:12:40.500Z,0.55
2023-04-23T17:16:40.577Z,0.7
2023-04-23T17:20:40.539Z,0.5
2023-04-23T17:24:40.713Z,1.1
2023-04-23T17:28:40.736Z,0.6
2023-04-23T17:32:39.817Z,0.7
2023-04-23T17:36:40.620Z,0.9
2023-04-23T17:40:40.402Z,0.77
2023-04-23T17:44:40.984Z,1.27
2023-04-23T17:48:40.441Z,0.98
2023-04-23T17:52:40.599Z,1.3
2023-04-23T17:56:40.275Z,1.1
2023-04-23T18:00:39.812Z,1.05
2023-04-23T18:04:41.086Z,1.1
2023-04-23T18:08:42.744Z,1.2
2023-04-23T18:12:40.569Z,1.42
2023-04-23T18:16:40.326Z,1.5
2023-04-23T18:20:40.680Z,1.6
2023-04-23T18:24:40.410Z,1.23
2023-04-23T18:28:40.605Z,1.8
2023-04-23T18:32:41.067Z,5.6
2023-04-23T18:36:40.573Z,4.75
2023-04-23T18:40:39.878Z,4.07
2023-04-23T18:44:40.669Z,3.12
2023-04-23T18:48:40.715Z,2.65
2023-04-23T18:52:40.459Z,2.3
2023-04-23T18:56:41.193Z,2.62
2023-04-23T19:00:40.871Z,2.33
2023-04-23T19:04:40.930Z,2.45
2023-04-23T19:08:40.714Z,2.62
2023-04-23T19:12:40.492Z,2.87
2023-04-23T19:16:40.447Z,2.9
2023-04-23T19:20:40.505Z,2.6
2023-04-23T19:24:40.441Z,2.4
2023-04-23T19:28:40.972Z,2.6
2023-04-23T19:32:40.730Z,2.6
2023-04-23T19:36:40.280Z,2.65
2023-04-23T19:40:40.616Z,3.28
2023-04-23T19:44:40.810Z,4.57
2023-04-23T19:48:40.816Z,3.3
2023-04-23T19:52:40.426Z,3.97
2023-04-23T19:56:40.493Z,3.92
2023-04-23T20:00:41.793Z,3.5
2023-04-23T20:04:40.762Z,3.1
2023-04-23T20:08:40.516Z,3
2023-04-23T20:12:40.438Z,3.12
2023-04-23T20:16:40.919Z,3.8
2023-04-23T20:20:40.628Z,2.6
2023-04-23T20:24:40.456Z,3.37
2023-04-23T20:28:40.949Z,3.37
2023-04-23T20:32:41.109Z,2.6
2023-04-23T20:36:40.425Z,3.53
2023-04-23T20:40:40.450Z,3.08
2023-04-23T20:44:40.461Z,2.47
2023-04-23T20:48:40.363Z,2.6
2023-04-23T20:52:40.418Z,3.15
2023-04-23T20:56:40.372Z,2.8
2023-04-23T21:00:40.477Z,2.6
2023-04-23T21:04:40.590Z,2.5
2023-04-23T21:08:40.508Z,3.2
2023-04-23T21:12:40.531Z,1.95
2023-04-23T21:16:40.534Z,2.8
2023-04-23T21:20:39.505Z,2.55
2023-04-23T21:24:40.484Z,2.8
2023-04-23T21:28:40.572Z,2.4
2023-04-23T21:32:40.473Z,2.83
2023-04-23T21:36:40.308Z,3.2
2023-04-23T21:40:40.385Z,3.08
2023-04-23T21:44:40.465Z,2.95
2023-04-23T21:48:40.526Z,2.72
2023-04-23T21:52:40.468Z,2.97
2023-04-23T21:56:40.701Z,3.1
2023-04-23T22:04:39.672Z,3.45
2023-04-23T22:08:40.788Z,3.22
2023-04-23T22:12:40.415Z,2.42
2023-04-23T22:16:40.282Z,3.3
2023-04-23T22:20:40.500Z,2.7
2023-04-23T22:24:40.486Z,2.85
2023-04-23T22:28:40.555Z,3.12
2023-04-23T22:32:40.395Z,2.62
2023-04-23T22:36:40.401Z,3.03
2023-04-23T22:40:41.225Z,2.3
2023-04-23T22:44:41.059Z,2.78
2023-04-23T22:48:40.471Z,2.7
2023-04-23T22:52:40.278Z,2.87
2023-04-23T22:56:40.548Z,3.37
2023-04-23T23:00:40.392Z,2.72
2023-04-23T23:04:40.714Z,3.08
2023-04-23T23:08:41.125Z,3.12
2023-04-23T23:12:40.393Z,2.92
2023-04-23T23:16:40.504Z,2.65
2023-04-23T23:20:40.444Z,3.58
2023-04-23T23:24:40.529Z,2.92
2023-04-23T23:28:40.460Z,3.2
2023-04-23T23:32:40.446Z,3.22
2023-04-23T23:36:39.428Z,3.75
2023-04-23T23:40:40.235Z,3.53
2023-04-23T23:44:40.494Z,3.47
2023-04-23T23:48:40.567Z,3.92
2023-04-23T23:52:40.418Z,3.67
2023-04-23T23:56:40.446Z,4.15
